sensor_id;sensor_type;location;lat;lon;timestamp;P1;durP1;ratioP1;P2;durP2;ratioP2
35839;SDS011;35514;50.504;30.500;2023-04-06T00:02:01;13.90;;;7.43;;
35839;SDS011;35514;50.504;30.500;2023-04-06T00:04:29;17.13;;;7.93;;
35839;SDS011;35514;50.504;30.500;2023-04-06T00:06:56;18.98;;;8.73;;
35839;SDS011;35514;50.504;30.500;2023-04-06T00:09:25;18.15;;;8.52;;
35839;SDS011;35514;50.504;30.500;2023-04-06T00:11:53;16.63;;;8.02;;
35839;SDS011;35514;50.504;30.500;2023-04-06T00:14:21;16.73;;;8.90;;
35839;SDS011;35514;50.504;30.500;2023-04-06T00:16:49;21.60;;;7.97;;
35839;SDS011;35514;50.504;30.500;2023-04-06T00:19:17;19.55;;;9.07;;
35839;SDS011;35514;50.504;30.500;2023-04-06T00:21:44;18.85;;;8.38;;
35839;SDS011;35514;50.504;30.500;2023-04-06T00:24:12;22.10;;;9.77;;
35839;SDS011;35514;50.504;30.500;2023-04-06T00:26:41;19.83;;;8.32;;
35839;SDS011;35514;50.504;30.500;2023-04-06T00:29:08;21.42;;;8.90;;
35839;SDS011;35514;50.504;30.500;2023-04-06T00:31:36;18.65;;;8.70;;
35839;SDS011;35514;50.504;30.500;2023-04-06T00:34:05;18.08;;;8.43;;
35839;SDS011;35514;50.504;30.500;2023-04-06T00:36:33;20.83;;;8.32;;
35839;SDS011;35514;50.504;30.500;2023-04-06T00:39:00;15.38;;;7.85;;
35839;SDS011;35514;50.504;30.500;2023-04-06T00:41:29;18.23;;;9.15;;
35839;SDS011;35514;50.504;30.500;2023-04-06T00:43:58;19.23;;;8.98;;
35839;SDS011;35514;50.504;30.500;2023-04-06T00:46:25;17.38;;;7.90;;
35839;SDS011;35514;50.504;30.500;2023-04-06T00:48:53;18.65;;;7.90;;
35839;SDS011;35514;50.504;30.500;2023-04-06T00:51:20;25.77;;;8.85;;
35839;SDS011;35514;50.504;30.500;2023-04-06T00:53:48;16.88;;;7.97;;
35839;SDS011;35514;50.504;30.500;2023-04-06T00:56:15;18.55;;;8.35;;
35839;SDS011;35514;50.504;30.500;2023-04-06T00:58:43;21.75;;;8.80;;
35839;SDS011;35514;50.504;30.500;2023-04-06T01:01:13;18.17;;;8.45;;
35839;SDS011;35514;50.504;30.500;2023-04-06T01:03:41;20.33;;;8.52;;
35839;SDS011;35514;50.504;30.500;2023-04-06T01:06:10;17.50;;;7.85;;
35839;SDS011;35514;50.504;30.500;2023-04-06T01:08:37;17.35;;;8.82;;
35839;SDS011;35514;50.504;30.500;2023-04-06T01:11:05;18.10;;;7.78;;
35839;SDS011;35514;50.504;30.500;2023-04-06T01:13:33;16.42;;;8.23;;
35839;SDS011;35514;50.504;30.500;2023-04-06T01:16:01;22.60;;;8.95;;
35839;SDS011;35514;50.504;30.500;2023-04-06T01:18:31;19.42;;;9.38;;
35839;SDS011;35514;50.504;30.500;2023-04-06T01:20:58;20.50;;;9.30;;
35839;SDS011;35514;50.504;30.500;2023-04-06T01:23:27;21.35;;;10.23;;
35839;SDS011;35514;50.504;30.500;2023-04-06T01:25:55;14.77;;;7.95;;
35839;SDS011;35514;50.504;30.500;2023-04-06T01:28:22;20.10;;;9.70;;
35839;SDS011;35514;50.504;30.500;2023-04-06T01:30:50;19.05;;;8.85;;
35839;SDS011;35514;50.504;30.500;2023-04-06T01:33:18;19.15;;;8.80;;
35839;SDS011;35514;50.504;30.500;2023-04-06T01:35:45;17.17;;;8.55;;
35839;SDS011;35514;50.504;30.500;2023-04-06T01:38:13;16.70;;;8.68;;
35839;SDS011;35514;50.504;30.500;2023-04-06T01:40:42;22.08;;;9.35;;
35839;SDS011;35514;50.504;30.500;2023-04-06T01:43:09;15.30;;;8.40;;
35839;SDS011;35514;50.504;30.500;2023-04-06T01:45:37;18.85;;;9.60;;
35839;SDS011;35514;50.504;30.500;2023-04-06T01:48:05;22.85;;;9.95;;
35839;SDS011;35514;50.504;30.500;2023-04-06T01:50:32;17.13;;;8.68;;
35839;SDS011;35514;50.504;30.500;2023-04-06T01:53:00;22.65;;;10.32;;
35839;SDS011;35514;50.504;30.500;2023-04-06T01:55:27;22.58;;;9.10;;
35839;SDS011;35514;50.504;30.500;2023-04-06T01:57:57;27.10;;;10.38;;
35839;SDS011;35514;50.504;30.500;2023-04-06T02:00:24;17.60;;;8.98;;
35839;SDS011;35514;50.504;30.500;2023-04-06T02:02:52;24.45;;;10.05;;
35839;SDS011;35514;50.504;30.500;2023-04-06T02:05:19;21.67;;;9.23;;
35839;SDS011;35514;50.504;30.500;2023-04-06T02:07:47;23.02;;;9.52;;
35839;SDS011;35514;50.504;30.500;2023-04-06T02:10:15;28.15;;;10.38;;
35839;SDS011;35514;50.504;30.500;2023-04-06T02:12:42;22.73;;;10.00;;
35839;SDS011;35514;50.504;30.500;2023-04-06T02:15:11;27.92;;;12.00;;
35839;SDS011;35514;50.504;30.500;2023-04-06T02:17:39;23.98;;;9.48;;
35839;SDS011;35514;50.504;30.500;2023-04-06T02:20:07;24.67;;;9.20;;
35839;SDS011;35514;50.504;30.500;2023-04-06T02:22:35;25.25;;;10.32;;
35839;SDS011;35514;50.504;30.500;2023-04-06T02:25:04;24.98;;;8.75;;
35839;SDS011;35514;50.504;30.500;2023-04-06T02:27:31;23.77;;;9.75;;
35839;SDS011;35514;50.504;30.500;2023-04-06T02:29:59;23.08;;;10.40;;
35839;SDS011;35514;50.504;30.500;2023-04-06T02:32:28;23.10;;;10.13;;
35839;SDS011;35514;50.504;30.500;2023-04-06T02:34:55;24.15;;;10.75;;
35839;SDS011;35514;50.504;30.500;2023-04-06T02:37:23;30.45;;;10.75;;
35839;SDS011;35514;50.504;30.500;2023-04-06T02:39:51;23.63;;;9.18;;
35839;SDS011;35514;50.504;30.500;2023-04-06T02:42:18;29.40;;;10.60;;
35839;SDS011;35514;50.504;30.500;2023-04-06T02:44:46;20.90;;;9.50;;
35839;SDS011;35514;50.504;30.500;2023-04-06T02:47:13;26.10;;;10.73;;
35839;SDS011;35514;50.504;30.500;2023-04-06T02:49:43;19.05;;;9.02;;
35839;SDS011;35514;50.504;30.500;2023-04-06T02:52:13;24.70;;;10.13;;
35839;SDS011;35514;50.504;30.500;2023-04-06T02:54:44;22.67;;;8.90;;
35839;SDS011;35514;50.504;30.500;2023-04-06T02:57:11;24.30;;;10.93;;
35839;SDS011;35514;50.504;30.500;2023-04-06T02:59:39;22.45;;;9.85;;
35839;SDS011;35514;50.504;30.500;2023-04-06T03:02:06;24.38;;;9.25;;
35839;SDS011;35514;50.504;30.500;2023-04-06T03:04:34;22.92;;;10.00;;
35839;SDS011;35514;50.504;30.500;2023-04-06T03:07:03;20.92;;;9.70;;
35839;SDS011;35514;50.504;30.500;2023-04-06T03:09:30;26.17;;;11.57;;
35839;SDS011;35514;50.504;30.500;2023-04-06T03:11:59;21.13;;;9.32;;
35839;SDS011;35514;50.504;30.500;2023-04-06T03:14:27;21.85;;;9.77;;
35839;SDS011;35514;50.504;30.500;2023-04-06T03:16:57;21.80;;;9.68;;
35839;SDS011;35514;50.504;30.500;2023-04-06T03:19:24;24.00;;;9.38;;
35839;SDS011;35514;50.504;30.500;2023-04-06T03:21:52;21.45;;;9.15;;
35839;SDS011;35514;50.504;30.500;2023-04-06T03:24:21;24.63;;;10.90;;
35839;SDS011;35514;50.504;30.500;2023-04-06T03:26:48;22.23;;;9.25;;
35839;SDS011;35514;50.504;30.500;2023-04-06T03:29:16;24.73;;;9.85;;
35839;SDS011;35514;50.504;30.500;2023-04-06T03:31:43;25.42;;;10.48;;
35839;SDS011;35514;50.504;30.500;2023-04-06T03:34:11;22.50;;;9.50;;
35839;SDS011;35514;50.504;30.500;2023-04-06T03:36:38;20.70;;;9.18;;
35839;SDS011;35514;50.504;30.500;2023-04-06T03:39:06;27.60;;;10.35;;
35839;SDS011;35514;50.504;30.500;2023-04-06T03:41:36;24.45;;;9.63;;
35839;SDS011;35514;50.504;30.500;2023-04-06T03:44:04;22.35;;;9.48;;
35839;SDS011;35514;50.504;30.500;2023-04-06T03:46:35;22.42;;;10.38;;
35839;SDS011;35514;50.504;30.500;2023-04-06T03:49:02;23.40;;;9.82;;
35839;SDS011;35514;50.504;30.500;2023-04-06T03:51:30;22.67;;;10.63;;
35839;SDS011;35514;50.504;30.500;2023-04-06T03:53:57;22.30;;;10.50;;
35839;SDS011;35514;50.504;30.500;2023-04-06T03:56:25;25.15;;;10.02;;
35839;SDS011;35514;50.504;30.500;2023-04-06T03:58:54;22.17;;;8.82;;
35839;SDS011;35514;50.504;30.500;2023-04-06T04:01:24;21.08;;;8.98;;
35839;SDS011;35514;50.504;30.500;2023-04-06T04:03:52;17.90;;;8.75;;
35839;SDS011;35514;50.504;30.500;2023-04-06T04:06:20;20.38;;;9.30;;
35839;SDS011;35514;50.504;30.500;2023-04-06T04:08:48;21.08;;;9.25;;
35839;SDS011;35514;50.504;30.500;2023-04-06T04:11:16;22.33;;;9.90;;
35839;SDS011;35514;50.504;30.500;2023-04-06T04:13:43;25.98;;;10.25;;
35839;SDS011;35514;50.504;30.500;2023-04-06T04:16:12;23.00;;;10.05;;
35839;SDS011;35514;50.504;30.500;2023-04-06T04:18:40;21.35;;;8.68;;
35839;SDS011;35514;50.504;30.500;2023-04-06T04:21:11;23.98;;;9.63;;
35839;SDS011;35514;50.504;30.500;2023-04-06T04:23:39;23.13;;;10.50;;
35839;SDS011;35514;50.504;30.500;2023-04-06T04:26:06;23.17;;;8.98;;
35839;SDS011;35514;50.504;30.500;2023-04-06T04:28:34;21.70;;;9.20;;
35839;SDS011;35514;50.504;30.500;2023-04-06T04:31:01;25.23;;;9.43;;
35839;SDS011;35514;50.504;30.500;2023-04-06T04:33:30;26.92;;;9.25;;
35839;SDS011;35514;50.504;30.500;2023-04-06T04:35:58;16.02;;;7.70;;
35839;SDS011;35514;50.504;30.500;2023-04-06T04:38:25;18.95;;;8.30;;
35839;SDS011;35514;50.504;30.500;2023-04-06T04:40:53;20.63;;;9.23;;
35839;SDS011;35514;50.504;30.500;2023-04-06T04:43:21;21.25;;;9.73;;
35839;SDS011;35514;50.504;30.500;2023-04-06T04:45:48;17.58;;;8.68;;
35839;SDS011;35514;50.504;30.500;2023-04-06T04:48:16;20.23;;;8.40;;
35839;SDS011;35514;50.504;30.500;2023-04-06T04:50:45;16.27;;;8.00;;
35839;SDS011;35514;50.504;30.500;2023-04-06T04:53:12;19.10;;;8.40;;
35839;SDS011;35514;50.504;30.500;2023-04-06T04:55:40;24.58;;;8.95;;
35839;SDS011;35514;50.504;30.500;2023-04-06T04:58:07;21.33;;;8.55;;
35839;SDS011;35514;50.504;30.500;2023-04-06T05:00:38;18.40;;;9.07;;
35839;SDS011;35514;50.504;30.500;2023-04-06T05:03:05;21.55;;;9.50;;
35839;SDS011;35514;50.504;30.500;2023-04-06T05:05:33;19.80;;;9.02;;
35839;SDS011;35514;50.504;30.500;2023-04-06T05:08:02;25.05;;;8.75;;
35839;SDS011;35514;50.504;30.500;2023-04-06T05:10:30;21.58;;;8.02;;
35839;SDS011;35514;50.504;30.500;2023-04-06T05:12:58;28.33;;;9.27;;
35839;SDS011;35514;50.504;30.500;2023-04-06T05:15:27;23.52;;;9.35;;
35839;SDS011;35514;50.504;30.500;2023-04-06T05:17:55;22.20;;;8.27;;
35839;SDS011;35514;50.504;30.500;2023-04-06T05:20:22;20.98;;;8.65;;
35839;SDS011;35514;50.504;30.500;2023-04-06T05:22:50;22.20;;;9.32;;
35839;SDS011;35514;50.504;30.500;2023-04-06T05:25:19;18.45;;;8.85;;
35839;SDS011;35514;50.504;30.500;2023-04-06T05:27:47;20.85;;;8.68;;
35839;SDS011;35514;50.504;30.500;2023-04-06T05:30:15;23.52;;;9.23;;
35839;SDS011;35514;50.504;30.500;2023-04-06T05:32:43;20.67;;;9.23;;
35839;SDS011;35514;50.504;30.500;2023-04-06T05:35:10;22.73;;;9.85;;
35839;SDS011;35514;50.504;30.500;2023-04-06T05:37:39;19.27;;;7.95;;
35839;SDS011;35514;50.504;30.500;2023-04-06T05:40:07;18.20;;;7.93;;
35839;SDS011;35514;50.504;30.500;2023-04-06T05:42:37;20.58;;;8.80;;
35839;SDS011;35514;50.504;30.500;2023-04-06T05:45:09;22.58;;;8.23;;
35839;SDS011;35514;50.504;30.500;2023-04-06T05:47:44;16.30;;;7.82;;
35839;SDS011;35514;50.504;30.500;2023-04-06T05:50:14;21.75;;;7.88;;
35839;SDS011;35514;50.504;30.500;2023-04-06T05:52:44;25.67;;;9.70;;
35839;SDS011;35514;50.504;30.500;2023-04-06T05:55:12;16.08;;;7.95;;
35839;SDS011;35514;50.504;30.500;2023-04-06T05:57:41;19.17;;;8.45;;
35839;SDS011;35514;50.504;30.500;2023-04-06T06:00:09;18.83;;;7.43;;
35839;SDS011;35514;50.504;30.500;2023-04-06T06:02:37;16.17;;;7.32;;
35839;SDS011;35514;50.504;30.500;2023-04-06T06:05:09;15.90;;;7.60;;
35839;SDS011;35514;50.504;30.500;2023-04-06T06:07:37;23.38;;;8.90;;
35839;SDS011;35514;50.504;30.500;2023-04-06T06:10:05;16.35;;;7.72;;
35839;SDS011;35514;50.504;30.500;2023-04-06T06:12:33;16.65;;;6.80;;
35839;SDS011;35514;50.504;30.500;2023-04-06T06:15:02;18.17;;;6.85;;
35839;SDS011;35514;50.504;30.500;2023-04-06T06:17:30;13.73;;;6.75;;
35839;SDS011;35514;50.504;30.500;2023-04-06T06:19:57;21.10;;;6.80;;
35839;SDS011;35514;50.504;30.500;2023-04-06T06:22:25;15.85;;;7.65;;
35839;SDS011;35514;50.504;30.500;2023-04-06T06:24:53;12.70;;;7.00;;
35839;SDS011;35514;50.504;30.500;2023-04-06T06:27:20;13.48;;;6.65;;
35839;SDS011;35514;50.504;30.500;2023-04-06T06:29:48;17.60;;;6.93;;
35839;SDS011;35514;50.504;30.500;2023-04-06T06:32:17;14.05;;;6.43;;
35839;SDS011;35514;50.504;30.500;2023-04-06T06:35:08;16.52;;;6.40;;
35839;SDS011;35514;50.504;30.500;2023-04-06T06:37:36;22.60;;;7.53;;
35839;SDS011;35514;50.504;30.500;2023-04-06T06:40:04;17.85;;;7.63;;
35839;SDS011;35514;50.504;30.500;2023-04-06T06:42:32;15.23;;;7.38;;
35839;SDS011;35514;50.504;30.500;2023-04-06T06:45:02;12.68;;;6.10;;
35839;SDS011;35514;50.504;30.500;2023-04-06T06:47:32;13.20;;;6.53;;
35839;SDS011;35514;50.504;30.500;2023-04-06T06:49:59;15.45;;;7.13;;
35839;SDS011;35514;50.504;30.500;2023-04-06T06:52:29;13.23;;;6.03;;
35839;SDS011;35514;50.504;30.500;2023-04-06T06:54:56;18.15;;;6.03;;
35839;SDS011;35514;50.504;30.500;2023-04-06T06:57:24;21.35;;;5.57;;
35839;SDS011;35514;50.504;30.500;2023-04-06T06:59:51;15.98;;;6.25;;
35839;SDS011;35514;50.504;30.500;2023-04-06T07:02:19;10.90;;;5.35;;
35839;SDS011;35514;50.504;30.500;2023-04-06T07:04:48;15.43;;;5.70;;
35839;SDS011;35514;50.504;30.500;2023-04-06T07:07:16;14.27;;;5.63;;
35839;SDS011;35514;50.504;30.500;2023-04-06T07:09:44;14.90;;;5.85;;
35839;SDS011;35514;50.504;30.500;2023-04-06T07:12:12;8.82;;;5.28;;
35839;SDS011;35514;50.504;30.500;2023-04-06T07:14:39;15.80;;;5.95;;
35839;SDS011;35514;50.504;30.500;2023-04-06T07:17:07;12.25;;;5.47;;
35839;SDS011;35514;50.504;30.500;2023-04-06T07:19:36;12.52;;;5.55;;
35839;SDS011;35514;50.504;30.500;2023-04-06T07:22:05;15.25;;;6.45;;
35839;SDS011;35514;50.504;30.500;2023-04-06T07:24:32;16.45;;;6.25;;
35839;SDS011;35514;50.504;30.500;2023-04-06T07:27:00;20.27;;;6.82;;
35839;SDS011;35514;50.504;30.500;2023-04-06T07:29:34;14.02;;;5.55;;
35839;SDS011;35514;50.504;30.500;2023-04-06T07:32:03;12.60;;;6.15;;
35839;SDS011;35514;50.504;30.500;2023-04-06T07:34:31;10.05;;;5.18;;
35839;SDS011;35514;50.504;30.500;2023-04-06T07:39:54;19.40;;;5.75;;
35839;SDS011;35514;50.504;30.500;2023-04-06T07:42:21;17.13;;;5.75;;
35839;SDS011;35514;50.504;30.500;2023-04-06T07:44:49;16.27;;;5.40;;
35839;SDS011;35514;50.504;30.500;2023-04-06T07:47:17;13.50;;;6.50;;
35839;SDS011;35514;50.504;30.500;2023-04-06T07:49:44;16.75;;;5.60;;
35839;SDS011;35514;50.504;30.500;2023-04-06T07:52:12;17.88;;;6.00;;
35839;SDS011;35514;50.504;30.500;2023-04-06T07:55:05;11.25;;;6.13;;
35839;SDS011;35514;50.504;30.500;2023-04-06T07:57:34;12.40;;;6.25;;
35839;SDS011;35514;50.504;30.500;2023-04-06T08:00:02;12.00;;;6.32;;
35839;SDS011;35514;50.504;30.500;2023-04-06T08:02:31;16.92;;;5.60;;
35839;SDS011;35514;50.504;30.500;2023-04-06T08:04:58;15.63;;;5.93;;
35839;SDS011;35514;50.504;30.500;2023-04-06T08:07:26;16.52;;;5.85;;
35839;SDS011;35514;50.504;30.500;2023-04-06T08:09:53;14.20;;;5.45;;
35839;SDS011;35514;50.504;30.500;2023-04-06T08:12:23;15.00;;;5.22;;
35839;SDS011;35514;50.504;30.500;2023-04-06T08:14:50;13.35;;;6.32;;
35839;SDS011;35514;50.504;30.500;2023-04-06T08:17:18;14.20;;;5.18;;
35839;SDS011;35514;50.504;30.500;2023-04-06T08:20:10;19.77;;;7.10;;
35839;SDS011;35514;50.504;30.500;2023-04-06T08:22:38;16.80;;;6.13;;
35839;SDS011;35514;50.504;30.500;2023-04-06T08:25:06;19.15;;;7.72;;
35839;SDS011;35514;50.504;30.500;2023-04-06T08:27:35;12.15;;;5.45;;
35839;SDS011;35514;50.504;30.500;2023-04-06T08:30:07;17.50;;;5.35;;
35839;SDS011;35514;50.504;30.500;2023-04-06T08:32:34;9.30;;;4.65;;
35839;SDS011;35514;50.504;30.500;2023-04-06T08:35:02;16.67;;;5.47;;
35839;SDS011;35514;50.504;30.500;2023-04-06T08:37:31;10.52;;;5.45;;
35839;SDS011;35514;50.504;30.500;2023-04-06T08:39:58;13.70;;;5.43;;
35839;SDS011;35514;50.504;30.500;2023-04-06T08:42:26;14.95;;;5.43;;
35839;SDS011;35514;50.504;30.500;2023-04-06T08:44:57;15.00;;;5.72;;
35839;SDS011;35514;50.504;30.500;2023-04-06T08:47:25;21.15;;;5.63;;
35839;SDS011;35514;50.504;30.500;2023-04-06T08:49:53;15.27;;;6.88;;
35839;SDS011;35514;50.504;30.500;2023-04-06T08:52:21;16.48;;;5.03;;
35839;SDS011;35514;50.504;30.500;2023-04-06T08:54:49;11.73;;;5.55;;
35839;SDS011;35514;50.504;30.500;2023-04-06T08:57:20;10.15;;;5.53;;
35839;SDS011;35514;50.504;30.500;2023-04-06T08:59:50;13.20;;;5.63;;
35839;SDS011;35514;50.504;30.500;2023-04-06T09:02:19;18.15;;;6.00;;
35839;SDS011;35514;50.504;30.500;2023-04-06T09:04:47;13.93;;;6.65;;
35839;SDS011;35514;50.504;30.500;2023-04-06T09:07:39;18.63;;;5.90;;
35839;SDS011;35514;50.504;30.500;2023-04-06T09:10:31;13.18;;;5.50;;
35839;SDS011;35514;50.504;30.500;2023-04-06T09:13:03;14.15;;;6.43;;
35839;SDS011;35514;50.504;30.500;2023-04-06T09:15:31;18.13;;;6.20;;
35839;SDS011;35514;50.504;30.500;2023-04-06T09:18:00;12.32;;;5.65;;
35839;SDS011;35514;50.504;30.500;2023-04-06T09:20:56;10.55;;;5.55;;
35839;SDS011;35514;50.504;30.500;2023-04-06T09:23:57;17.30;;;5.95;;
35839;SDS011;35514;50.504;30.500;2023-04-06T09:26:25;12.52;;;5.45;;
35839;SDS011;35514;50.504;30.500;2023-04-06T09:28:53;12.38;;;4.88;;
35839;SDS011;35514;50.504;30.500;2023-04-06T09:31:22;17.33;;;5.90;;
35839;SDS011;35514;50.504;30.500;2023-04-06T09:33:52;14.57;;;5.15;;
35839;SDS011;35514;50.504;30.500;2023-04-06T09:36:19;13.80;;;6.95;;
35839;SDS011;35514;50.504;30.500;2023-04-06T09:38:56;13.00;;;5.45;;
35839;SDS011;35514;50.504;30.500;2023-04-06T09:41:25;16.85;;;6.28;;
35839;SDS011;35514;50.504;30.500;2023-04-06T09:44:01;22.63;;;6.82;;
35839;SDS011;35514;50.504;30.500;2023-04-06T09:46:30;9.10;;;5.38;;
35839;SDS011;35514;50.504;30.500;2023-04-06T09:49:17;12.18;;;5.20;;
35839;SDS011;35514;50.504;30.500;2023-04-06T09:52:10;14.25;;;6.55;;
35839;SDS011;35514;50.504;30.500;2023-04-06T09:54:38;15.55;;;5.97;;
35839;SDS011;35514;50.504;30.500;2023-04-06T09:57:07;13.27;;;4.68;;
35839;SDS011;35514;50.504;30.500;2023-04-06T10:00:14;11.00;;;5.57;;
35839;SDS011;35514;50.504;30.500;2023-04-06T10:02:45;12.90;;;6.05;;
35839;SDS011;35514;50.504;30.500;2023-04-06T10:05:19;9.70;;;5.07;;
35839;SDS011;35514;50.504;30.500;2023-04-06T10:08:11;15.23;;;5.50;;
35839;SDS011;35514;50.504;30.500;2023-04-06T10:10:39;10.57;;;4.75;;
35839;SDS011;35514;50.504;30.500;2023-04-06T10:13:07;17.55;;;5.53;;
35839;SDS011;35514;50.504;30.500;2023-04-06T10:15:37;13.63;;;5.63;;
35839;SDS011;35514;50.504;30.500;2023-04-06T10:18:05;9.88;;;5.93;;
35839;SDS011;35514;50.504;30.500;2023-04-06T10:20:37;15.27;;;6.05;;
35839;SDS011;35514;50.504;30.500;2023-04-06T10:23:08;10.40;;;6.35;;
35839;SDS011;35514;50.504;30.500;2023-04-06T10:28:08;15.63;;;6.93;;
35839;SDS011;35514;50.504;30.500;2023-04-06T10:30:41;18.70;;;6.45;;
35839;SDS011;35514;50.504;30.500;2023-04-06T10:33:12;15.80;;;6.57;;
35839;SDS011;35514;50.504;30.500;2023-04-06T10:36:12;11.35;;;6.15;;
35839;SDS011;35514;50.504;30.500;2023-04-06T10:39:28;10.68;;;6.50;;
35839;SDS011;35514;50.504;30.500;2023-04-06T10:42:44;19.50;;;6.32;;
35839;SDS011;35514;50.504;30.500;2023-04-06T10:45:19;16.35;;;6.07;;
35839;SDS011;35514;50.504;30.500;2023-04-06T10:47:47;13.70;;;6.28;;
35839;SDS011;35514;50.504;30.500;2023-04-06T10:50:15;13.15;;;6.32;;
35839;SDS011;35514;50.504;30.500;2023-04-06T10:52:45;13.00;;;6.18;;
35839;SDS011;35514;50.504;30.500;2023-04-06T10:55:14;19.35;;;6.65;;
35839;SDS011;35514;50.504;30.500;2023-04-06T10:57:42;18.00;;;6.22;;
35839;SDS011;35514;50.504;30.500;2023-04-06T11:24:36;14.25;;;7.15;;
35839;SDS011;35514;50.504;30.500;2023-04-06T11:27:04;12.88;;;5.45;;
35839;SDS011;35514;50.504;30.500;2023-04-06T11:29:31;15.32;;;5.65;;
35839;SDS011;35514;50.504;30.500;2023-04-06T11:32:02;11.95;;;5.53;;
35839;SDS011;35514;50.504;30.500;2023-04-06T11:34:30;10.45;;;4.75;;
35839;SDS011;35514;50.504;30.500;2023-04-06T11:37:21;11.63;;;5.50;;
35839;SDS011;35514;50.504;30.500;2023-04-06T11:40:21;11.88;;;5.53;;
35839;SDS011;35514;50.504;30.500;2023-04-06T11:42:53;9.95;;;4.72;;
35839;SDS011;35514;50.504;30.500;2023-04-06T11:45:21;12.02;;;5.88;;
35839;SDS011;35514;50.504;30.500;2023-04-06T11:47:55;14.73;;;7.53;;
35839;SDS011;35514;50.504;30.500;2023-04-06T11:50:23;15.88;;;7.82;;
35839;SDS011;35514;50.504;30.500;2023-04-06T11:52:57;15.38;;;6.53;;
35839;SDS011;35514;50.504;30.500;2023-04-06T11:55:27;14.60;;;6.38;;
35839;SDS011;35514;50.504;30.500;2023-04-06T11:57:57;14.15;;;6.85;;
35839;SDS011;35514;50.504;30.500;2023-04-06T12:00:25;15.95;;;7.40;;
35839;SDS011;35514;50.504;30.500;2023-04-06T12:03:16;17.23;;;6.47;;
35839;SDS011;35514;50.504;30.500;2023-04-06T12:06:08;15.30;;;7.82;;
35839;SDS011;35514;50.504;30.500;2023-04-06T12:08:36;14.55;;;7.38;;
35839;SDS011;35514;50.504;30.500;2023-04-06T12:11:05;15.93;;;6.93;;
35839;SDS011;35514;50.504;30.500;2023-04-06T12:13:33;20.70;;;7.45;;
35839;SDS011;35514;50.504;30.500;2023-04-06T12:19:43;17.25;;;7.65;;
35839;SDS011;35514;50.504;30.500;2023-04-06T12:22:11;18.92;;;7.70;;
35839;SDS011;35514;50.504;30.500;2023-04-06T12:24:38;15.13;;;7.72;;
35839;SDS011;35514;50.504;30.500;2023-04-06T12:27:07;19.02;;;6.88;;
35839;SDS011;35514;50.504;30.500;2023-04-06T12:29:37;15.52;;;6.75;;
35839;SDS011;35514;50.504;30.500;2023-04-06T12:32:05;13.48;;;7.03;;
35839;SDS011;35514;50.504;30.500;2023-04-06T12:34:33;15.05;;;7.18;;
35839;SDS011;35514;50.504;30.500;2023-04-06T12:37:01;13.95;;;7.95;;
35839;SDS011;35514;50.504;30.500;2023-04-06T12:39:28;11.82;;;6.03;;
35839;SDS011;35514;50.504;30.500;2023-04-06T12:41:56;17.00;;;6.43;;
35839;SDS011;35514;50.504;30.500;2023-04-06T12:44:25;12.65;;;5.50;;
35839;SDS011;35514;50.504;30.500;2023-04-06T12:46:53;15.07;;;5.20;;
35839;SDS011;35514;50.504;30.500;2023-04-06T12:49:21;14.23;;;6.30;;
35839;SDS011;35514;50.504;30.500;2023-04-06T12:51:49;15.20;;;6.65;;
35839;SDS011;35514;50.504;30.500;2023-04-06T12:54:17;10.50;;;5.88;;
35839;SDS011;35514;50.504;30.500;2023-04-06T12:56:44;11.80;;;5.43;;
35839;SDS011;35514;50.504;30.500;2023-04-06T12:59:16;10.57;;;5.38;;
35839;SDS011;35514;50.504;30.500;2023-04-06T13:01:49;12.00;;;5.55;;
35839;SDS011;35514;50.504;30.500;2023-04-06T13:04:18;13.82;;;5.07;;
35839;SDS011;35514;50.504;30.500;2023-04-06T13:06:45;7.18;;;4.15;;
35839;SDS011;35514;50.504;30.500;2023-04-06T13:09:13;9.25;;;4.95;;
35839;SDS011;35514;50.504;30.500;2023-04-06T13:11:41;9.32;;;5.22;;
35839;SDS011;35514;50.504;30.500;2023-04-06T13:14:08;12.02;;;5.50;;
35839;SDS011;35514;50.504;30.500;2023-04-06T13:16:36;8.60;;;4.93;;
35839;SDS011;35514;50.504;30.500;2023-04-06T13:19:05;8.82;;;4.63;;
35839;SDS011;35514;50.504;30.500;2023-04-06T13:21:32;9.98;;;5.10;;
35839;SDS011;35514;50.504;30.500;2023-04-06T13:24:03;11.45;;;4.47;;
35839;SDS011;35514;50.504;30.500;2023-04-06T13:26:31;10.93;;;5.53;;
35839;SDS011;35514;50.504;30.500;2023-04-06T13:28:59;12.95;;;6.43;;
35839;SDS011;35514;50.504;30.500;2023-04-06T13:31:27;11.98;;;5.80;;
35839;SDS011;35514;50.504;30.500;2023-04-06T13:33:54;11.93;;;5.68;;
35839;SDS011;35514;50.504;30.500;2023-04-06T13:36:23;11.65;;;5.35;;
35839;SDS011;35514;50.504;30.500;2023-04-06T13:38:54;13.45;;;6.45;;
35839;SDS011;35514;50.504;30.500;2023-04-06T13:41:23;15.98;;;6.97;;
35839;SDS011;35514;50.504;30.500;2023-04-06T13:43:51;16.55;;;7.05;;
35839;SDS011;35514;50.504;30.500;2023-04-06T13:46:21;17.27;;;8.15;;
35839;SDS011;35514;50.504;30.500;2023-04-06T13:48:52;13.68;;;7.13;;
35839;SDS011;35514;50.504;30.500;2023-04-06T13:51:23;14.70;;;6.45;;
35839;SDS011;35514;50.504;30.500;2023-04-06T13:53:53;14.75;;;7.55;;
35839;SDS011;35514;50.504;30.500;2023-04-06T13:56:21;11.40;;;6.25;;
35839;SDS011;35514;50.504;30.500;2023-04-06T13:58:49;18.75;;;7.68;;
35839;SDS011;35514;50.504;30.500;2023-04-06T14:01:17;13.70;;;6.85;;
35839;SDS011;35514;50.504;30.500;2023-04-06T14:03:45;14.45;;;6.88;;
35839;SDS011;35514;50.504;30.500;2023-04-06T14:06:14;12.68;;;7.22;;
35839;SDS011;35514;50.504;30.500;2023-04-06T14:08:46;13.68;;;5.93;;
35839;SDS011;35514;50.504;30.500;2023-04-06T14:11:15;15.20;;;6.82;;
35839;SDS011;35514;50.504;30.500;2023-04-06T14:14:06;13.93;;;6.97;;
35839;SDS011;35514;50.504;30.500;2023-04-06T14:16:58;13.35;;;6.30;;
35839;SDS011;35514;50.504;30.500;2023-04-06T14:19:26;14.75;;;6.63;;
35839;SDS011;35514;50.504;30.500;2023-04-06T14:21:57;12.35;;;6.75;;
35839;SDS011;35514;50.504;30.500;2023-04-06T14:24:53;15.63;;;6.78;;
35839;SDS011;35514;50.504;30.500;2023-04-06T14:27:23;11.48;;;6.35;;
35839;SDS011;35514;50.504;30.500;2023-04-06T14:29:51;14.00;;;7.10;;
35839;SDS011;35514;50.504;30.500;2023-04-06T14:32:19;11.07;;;6.07;;
35839;SDS011;35514;50.504;30.500;2023-04-06T14:34:47;18.80;;;7.03;;
35839;SDS011;35514;50.504;30.500;2023-04-06T14:37:14;18.10;;;7.07;;
35839;SDS011;35514;50.504;30.500;2023-04-06T14:39:43;16.92;;;7.28;;
35839;SDS011;35514;50.504;30.500;2023-04-06T14:42:12;15.18;;;7.95;;
35839;SDS011;35514;50.504;30.500;2023-04-06T14:44:40;13.82;;;7.18;;
35839;SDS011;35514;50.504;30.500;2023-04-06T14:47:09;20.38;;;7.32;;
35839;SDS011;35514;50.504;30.500;2023-04-06T14:49:37;13.10;;;7.22;;
35839;SDS011;35514;50.504;30.500;2023-04-06T14:52:04;18.20;;;8.07;;
35839;SDS011;35514;50.504;30.500;2023-04-06T14:54:32;17.02;;;8.00;;
35839;SDS011;35514;50.504;30.500;2023-04-06T14:57:26;21.65;;;7.90;;
35839;SDS011;35514;50.504;30.500;2023-04-06T15:00:18;22.08;;;7.97;;
35839;SDS011;35514;50.504;30.500;2023-04-06T15:02:46;17.65;;;7.55;;
35839;SDS011;35514;50.504;30.500;2023-04-06T15:05:14;19.83;;;8.68;;
35839;SDS011;35514;50.504;30.500;2023-04-06T15:07:42;19.77;;;8.20;;
35839;SDS011;35514;50.504;30.500;2023-04-06T15:10:10;22.63;;;9.38;;
35839;SDS011;35514;50.504;30.500;2023-04-06T15:12:39;16.05;;;7.93;;